createdAt,value
2018-04-02T00:01:18.862Z,99014.72
2018-04-02T00:07:23.417Z,99010.59
2018-04-02T00:13:29.632Z,99010.17
2018-04-02T00:19:34.167Z,99005.77
2018-04-02T00:25:40.261Z,99003.09
2018-04-02T00:31:44.993Z,99001.93
2018-04-02T00:37:50.270Z,99002.80
2018-04-02T00:43:55.034Z,99001.72
2018-04-02T00:50:01.010Z,99001.54
2018-04-02T00:56:05.731Z,99000.67
2018-04-02T01:02:10.315Z,99015.07
2018-04-02T01:08:14.867Z,99023.17
2018-04-02T01:14:19.503Z,99022.71
2018-04-02T01:20:25.733Z,99021.25
2018-04-02T01:26:30.976Z,99016.06
2018-04-02T01:32:36.408Z,99017.72
2018-04-02T01:38:41.025Z,99012.05
2018-04-02T01:44:45.517Z,99010.77
2018-04-02T01:50:50.083Z,99016.72
2018-04-02T01:56:54.737Z,99021.54
2018-04-02T02:02:59.754Z,99015.06
2018-04-02T02:09:04.430Z,99010.58
2018-04-02T02:15:09.033Z,98999.99
2018-04-02T02:21:13.545Z,98998.16
2018-04-02T02:27:18.814Z,99001.73
2018-04-02T02:33:23.373Z,98998.22
2018-04-02T02:39:29.258Z,98989.16
2018-04-02T02:45:33.797Z,98996.06
2018-04-02T02:51:38.354Z,98982.10
2018-04-02T02:57:42.947Z,98986.17
2018-04-02T03:03:47.601Z,98984.94
2018-04-02T03:09:52.218Z,98979.36
2018-04-02T03:15:57.082Z,98973.12
2018-04-02T03:22:01.810Z,98979.84
2018-04-02T03:28:06.462Z,98984.15
2018-04-02T03:34:10.994Z,98973.79
2018-04-02T03:40:15.723Z,98974.84
2018-04-02T03:46:20.261Z,98978.73
2018-04-02T03:52:24.831Z,98982.81
2018-04-02T03:58:30.532Z,98983.52
2018-04-02T04:04:35.802Z,98987.32
2018-04-02T04:10:40.377Z,98984.57
2018-04-02T04:16:44.938Z,98971.23
2018-04-02T04:22:49.576Z,98975.37
2018-04-02T04:28:54.070Z,98982.09
2018-04-02T04:34:59.448Z,98983.01
2018-04-02T04:41:04.058Z,98987.80
2018-04-02T04:47:08.535Z,98987.28
2018-04-02T04:53:13.047Z,98978.39
2018-04-02T04:59:18.310Z,98968.47
2018-04-02T05:05:22.800Z,98973.70
2018-04-02T05:11:27.705Z,98979.89
2018-04-02T05:17:33.242Z,98986.20
2018-04-02T05:23:37.933Z,98968.44
2018-04-02T05:29:42.433Z,98979.91
2018-04-02T05:35:47.040Z,98973.27
2018-04-02T05:41:51.621Z,98970.06
2018-04-02T05:47:57.376Z,98978.25
2018-04-02T05:54:01.914Z,98978.02
2018-04-02T06:00:06.380Z,98978.20
2018-04-02T06:06:10.848Z,98978.31
2018-04-02T06:12:15.437Z,98975.61
2018-04-02T06:18:19.991Z,98979.19
2018-04-02T06:24:24.706Z,98982.66
2018-04-02T06:30:30.521Z,98991.27
2018-04-02T06:36:35.161Z,98987.98
2018-04-02T06:42:40.520Z,98982.47
2018-04-02T06:48:45.602Z,98984.20
2018-04-02T06:54:51.000Z,98985.33
2018-04-02T07:00:56.488Z,98978.81
2018-04-02T07:07:01.271Z,98980.52
2018-04-02T07:13:05.748Z,98980.11
2018-04-02T07:19:10.385Z,98970.91
2018-04-02T07:25:14.976Z,98972.09
2018-04-02T07:31:19.721Z,98971.48
2018-04-02T07:37:25.123Z,98966.36
2018-04-02T07:43:30.643Z,98967.44
2018-04-02T07:49:35.121Z,98968.34
2018-04-02T07:55:39.708Z,98979.42
2018-04-02T08:01:44.338Z,98984.45
2018-04-02T08:07:49.651Z,98991.66
2018-04-02T08:13:54.144Z,98984.93
2018-04-02T08:19:59.088Z,98988.91
2018-04-02T08:26:03.637Z,98982.23
2018-04-02T08:32:08.284Z,98977.99
2018-04-02T08:38:12.789Z,98980.41
2018-04-02T08:44:17.314Z,98966.73
2018-04-02T08:50:21.817Z,98969.52
2018-04-02T08:56:27.114Z,98969.91
2018-04-02T09:02:32.623Z,98968.45
2018-04-02T09:08:37.192Z,98963.30
2018-04-02T09:14:41.755Z,98953.06
2018-04-02T09:20:47.180Z,98950.35
2018-04-02T09:26:53.434Z,98941.37
2018-04-02T09:32:58.468Z,98937.34
2018-04-02T09:39:03.190Z,98919.78
2018-04-02T09:45:08.511Z,98903.85
2018-04-02T09:51:13.040Z,98885.66
2018-04-02T09:57:18.354Z,98891.51
2018-04-02T10:03:22.824Z,98881.42
2018-04-02T10:09:27.601Z,98878.07
2018-04-02T10:15:32.188Z,98871.49
2018-04-02T10:21:36.669Z,98864.58
2018-04-02T10:27:41.159Z,98852.83
2018-04-02T10:33:45.725Z,98838.12
2018-04-02T10:39:50.348Z,98827.30
2018-04-02T10:45:55.094Z,98808.06
2018-04-02T10:51:59.788Z,98809.45
2018-04-02T10:58:05.088Z,98799.83
2018-04-02T11:04:09.732Z,98798.19
2018-04-02T11:10:14.223Z,98786.21
2018-04-02T11:16:19.107Z,98783.29
2018-04-02T11:22:23.627Z,98764.72
2018-04-02T11:28:28.133Z,98752.75
2018-04-02T11:34:32.627Z,98757.28
2018-04-02T11:40:37.925Z,98746.97
2018-04-02T11:46:42.458Z,98731.61
2018-04-02T11:52:47.034Z,98725.02
2018-04-02T11:58:51.824Z,98727.55
2018-04-02T12:04:56.646Z,98715.95
2018-04-02T12:11:01.444Z,98723.09
2018-04-02T12:17:05.987Z,98716.85
2018-04-02T12:23:10.512Z,98714.27
2018-04-02T12:29:15.000Z,98688.60
2018-04-02T12:35:19.537Z,98681.14
2018-04-02T12:41:25.455Z,98678.59
2018-04-02T12:47:30.405Z,98676.01
2018-04-02T12:53:35.046Z,98665.48
2018-04-02T12:59:39.538Z,98656.17
2018-04-02T13:05:44.149Z,98651.84
2018-04-02T13:11:48.668Z,98630.25
2018-04-02T13:17:53.153Z,98617.05
2018-04-02T13:23:57.665Z,98609.44
2018-04-02T13:30:02.159Z,98597.52
2018-04-02T13:36:06.674Z,98589.91
2018-04-02T13:42:11.952Z,98581.94
2018-04-02T13:48:16.464Z,98588.09
2018-04-02T13:54:20.964Z,98572.16
2018-04-02T14:00:25.491Z,98560.95
2018-04-02T14:06:30.435Z,98550.44
2018-04-02T14:12:34.939Z,98551.67
2018-04-02T14:18:39.411Z,98541.94
2018-04-02T14:24:44.051Z,98538.80
2018-04-02T14:30:49.331Z,98526.27
2018-04-02T14:36:53.892Z,98516.04
2018-04-02T14:55:59.242Z,98481.42
2018-04-02T15:02:03.811Z,98463.06
2018-04-02T15:08:08.591Z,98453.83
2018-04-02T15:14:13.108Z,98439.21
2018-04-02T15:20:17.591Z,98429.84
2018-04-02T15:26:22.218Z,98430.61
2018-04-02T15:32:27.512Z,98422.61
2018-04-02T15:38:32.065Z,98411.09
2018-04-02T15:44:36.536Z,98411.28
2018-04-02T15:50:41.034Z,98393.30
2018-04-02T15:56:46.410Z,98386.50
2018-04-02T16:02:50.941Z,98371.84
2018-04-02T16:08:55.529Z,98363.73
2018-04-02T16:15:00.126Z,98359.52
2018-04-02T16:21:06.251Z,98352.84
2018-04-02T16:27:10.765Z,98353.55
2018-04-02T16:33:15.284Z,98348.42
2018-04-02T16:39:20.680Z,98342.48
2018-04-02T16:45:25.770Z,98336.41
2018-04-02T16:51:30.363Z,98329.41
2018-04-02T16:57:34.953Z,98323.64
2018-04-02T17:03:39.486Z,98319.97
2018-04-02T17:09:44.015Z,98318.88
2018-04-02T17:15:48.498Z,98308.28
2018-04-02T17:21:52.987Z,98302.47
2018-04-02T17:27:57.857Z,98305.15
2018-04-02T17:34:02.361Z,98308.37
2018-04-02T17:40:06.859Z,98297.78
2018-04-02T17:46:11.337Z,98295.98
2018-04-02T17:52:15.808Z,98295.41
2018-04-02T17:58:20.905Z,98283.72
2018-04-02T18:04:25.634Z,98269.06
2018-04-02T18:10:30.239Z,98267.00
2018-04-02T18:16:34.740Z,98257.94
2018-04-02T18:22:39.232Z,98255.21
2018-04-02T18:28:43.745Z,98253.13
2018-04-02T18:34:49.000Z,98258.47
2018-04-02T18:40:53.532Z,98265.63
2018-04-02T18:46:58.399Z,98268.73
2018-04-02T18:53:02.920Z,98271.14
2018-04-02T18:59:07.401Z,98258.23
2018-04-02T19:05:11.919Z,98263.60
2018-04-02T19:11:16.487Z,98263.36
2018-04-02T19:17:20.975Z,98265.76
2018-04-02T19:23:27.898Z,98277.00
2018-04-02T19:29:32.469Z,98283.89
2018-04-02T19:35:37.038Z,98270.20
2018-04-02T19:41:42.263Z,98269.41
2018-04-02T19:47:46.960Z,98260.67
2018-04-02T19:53:52.287Z,98252.19
2018-04-02T19:59:57.201Z,98259.36
2018-04-02T20:06:02.523Z,98237.95
2018-04-02T20:12:07.200Z,98220.11
2018-04-02T20:18:11.912Z,98216.17
2018-04-02T20:24:16.415Z,98215.56
2018-04-02T20:30:20.975Z,98215.80
2018-04-02T20:36:25.546Z,98221.91
2018-04-02T20:42:30.461Z,98216.69
2018-04-02T20:48:35.036Z,98210.97
2018-04-02T20:54:39.550Z,98202.28
2018-04-02T21:00:44.032Z,98197.98
2018-04-02T21:06:48.663Z,98190.66
2018-04-02T21:12:53.424Z,98185.67
2018-04-02T21:18:58.767Z,98176.88
2018-04-02T21:25:03.273Z,98195.22
2018-04-02T21:31:07.755Z,98206.47
2018-04-02T21:37:12.539Z,98188.89
2018-04-02T21:43:17.116Z,98183.97
2018-04-02T21:49:21.738Z,98172.97
2018-04-02T21:55:26.513Z,98153.06
2018-04-02T22:01:31.357Z,98157.59
2018-04-02T22:07:36.168Z,98141.41
2018-04-02T22:13:40.731Z,98139.27
2018-04-02T22:19:45.261Z,98118.41
2018-04-02T22:25:49.836Z,98121.55
2018-04-02T22:31:54.348Z,98123.11
2018-04-02T22:37:59.346Z,98123.16
2018-04-02T22:44:03.866Z,98107.25
2018-04-02T22:50:08.623Z,98110.94
2018-04-02T22:56:13.108Z,98102.84
2018-04-02T23:02:18.400Z,98098.11
2018-04-02T23:08:22.895Z,98084.77
2018-04-02T23:14:28.586Z,98095.27
2018-04-02T23:20:33.255Z,98095.49
2018-04-02T23:26:37.819Z,98080.83
2018-04-02T23:32:42.281Z,98071.44
2018-04-02T23:38:46.763Z,98082.84
2018-04-02T23:44:51.276Z,98071.70
2018-04-02T23:50:55.974Z,98072.59
2018-04-02T23:57:00.725Z,98060.81
